30 september 2022

Tijd Code Weer Temp. Zicht Plafond Wind METAR/SPECI
19:00
V
16 °C 10 km+ - 320° 320° 10 kt METAR LESU 301700Z 32010KT 9999 FEW090 16/00 Q1015
18:30
V
16 °C 10 km+ - 320° 320° 11 kt METAR LESU 301630Z 32011KT 290V350 9999 FEW084 16/M01 Q1014
18:00
V
16 °C 10 km+ - 310° 310° 11 kt METAR LESU 301600Z 31011KT 9999 SCT085 16/M02 Q1014
17:30
V
17 °C 10 km+ - 290° 290° 10 kt METAR LESU 301530Z 29010KT 9999 SCT082 17/M01 Q1014
17:00
V
17 °C 10 km+ - 310° 310° 10 kt METAR LESU 301500Z 31010KT 270V330 9999 SCT082 17/M01 Q1014
16:30
V
17 °C 10 km+ - 290° 290° 11 kt METAR LESU 301430Z 29011KT 240V320 9999 SCT077 17/M00 Q1013
16:00
V
16 °C 10 km+ - 300° 300° 11 kt METAR LESU 301400Z 30011KT 270V330 9999 SCT081 16/M00 Q1013
15:30
V
16 °C 10 km+ - 300° 300° 14 kt METAR LESU 301330Z 30014KT 9999 SCT070 16/M01 Q1013
15:00
V
16 °C 10 km+ - 300° 300° 13 kt METAR LESU 301300Z 30013KT 270V340 9999 SCT070 16/00 Q1013
14:30
V
16 °C 10 km+ 6.500 ft 300° 300° 11 kt METAR LESU 301230Z 30011KT 260V330 9999 BKN065 16/M01 Q1013
14:00
V
16 °C 10 km+ 6.800 ft Var Var 4 kt METAR LESU 301200Z VRB04KT 9999 BKN068 16/02 Q1012
13:30
V
15 °C 10 km+ 5.700 ft 110° 110° 6 kt METAR LESU 301130Z 11006KT 060V150 9999 BKN057 15/03 Q1012
13:00
V
14 °C 10 km+ 6.400 ft Var Var 2 kt METAR LESU 301100Z VRB02KT 9999 BKN064 14/02 Q1012
12:30
V
14 °C 10 km+ - 070° 070° 3 kt METAR LESU 301030Z 07003KT 360V110 9999 SCT063 14/01 Q1012
12:00
V
13 °C 10 km+ - 080° 080° 3 kt METAR LESU 301000Z 08003KT 040V130 9999 SCT064 13/05 Q1012
11:30
V
12 °C 10 km+ - 070° 070° 4 kt METAR LESU 300930Z 07004KT 020V130 9999 SCT068 12/04 Q1012
11:00
V
11 °C 10 km+ - Var Var 2 kt METAR LESU 300900Z VRB02KT 9999 SCT067 11/07 Q1012
10:30
V
9 °C 10 km+ - Var Var 3 kt METAR LESU 300830Z VRB03KT 9999 SCT063 09/07 Q1012
10:00
V
8 °C 10 km+ - 040° 040° 4 kt METAR LESU 300800Z 04004KT 300V090 9999 FEW002 08/06 Q1011

29 september 2022

Tijd Code Weer Temp. Zicht Plafond Wind METAR/SPECI
17:30
M
10 °C 6 km 5.900 ft Var Var 2 kt METAR LESU 291530Z VRB02KT 6000 RA FEW025 SCT049 BKN059 10/09 Q1004
17:00
M
10 °C 6 km 5.400 ft 210° 210° 3 kt METAR LESU 291500Z 21003KT 180V310 6000 RA OVC054 10/10 Q1003
16:46
V
11 °C 9 km 5.200 ft 190° 190° 4 kt METAR LESU 291446Z 19004KT 9000 RA OVC052 11/10 Q1003
16:30
V
11 °C 8 km 5.100 ft 050° 050° 3 kt METAR LESU 291430Z 05003KT 320V110 8000 -RA FEW043 OVC051 11/09 Q1003
16:00
V
12 °C 10 km+ 4.000 ft 350° 350° 9 kt METAR LESU 291400Z 35009KT 300V040 9999 -RA BKN040 BKN047 12/09 Q1003
15:30
V
13 °C 10 km+ 4.200 ft 330° 330° 9 kt METAR LESU 291330Z 33009KT 290V040 9999 BKN042 13/09 Q1002
15:00
V
14 °C 10 km+ 5.500 ft Var Var 4 kt METAR LESU 291300Z VRB04KT 9999 BKN055 BKN062 14/10 Q1002
14:30
V
13 °C 10 km+ 5.400 ft 310° 310° 4 kt METAR LESU 291230Z 31004KT 9999 -RA SCT042 BKN054 13/08 Q1003
14:00
V
15 °C 10 km+ 6.700 ft 260° 260° 8 kt METAR LESU 291200Z 26008KT 9999 -RA SCT055 BKN067 15/08 Q1003
13:30
V
17 °C 10 km+ 6.200 ft 220° 220° 6 kt METAR LESU 291130Z 22006KT 180V260 9999 BKN062 17/08 Q1003
13:00
V
15 °C 10 km+ 6.300 ft 230° 230° 7 kt METAR LESU 291100Z 23007KT 200V270 9999 BKN063 BKN078 15/09 Q1003
12:30
V
15 °C 10 km+ 9.000 ft 220° 220° 6 kt METAR LESU 291030Z 22006KT 190V260 9999 FEW062 SCT072 BKN090 15/07 Q1003
12:00
V
15 °C 10 km+ - Var Var 2 kt METAR LESU 291000Z VRB02KT 9999 FEW040 SCT074 15/07 Q1003
11:30
V
14 °C 10 km+ - Var Var 3 kt METAR LESU 290930Z VRB03KT 9999 FEW040 14/07 Q1004
11:00
V
12 °C 10 km+ - 070° 070° 3 kt METAR LESU 290900Z 07003KT 010V110 9999 FEW040 12/07 Q1004
10:30
V
12 °C 10 km+ - Var Var 1 kt METAR LESU 290830Z VRB01KT 9999 FEW040 SCT092 12/07 Q1004
10:00
V
10 °C 10 km+ - Var Var 2 kt METAR LESU 290800Z VRB02KT 9999 FEW040 10/07 Q1005
Oudere gegevens

Met cookies volgen wij en derde partijen jouw internetgedrag binnen onze site. Als je verdergaat gaan we ervan uit dat je dit goedvindt. Meer info